createdAt,value
2017-11-11T00:00:14.941Z,1002.8
2017-11-11T00:01:16.331Z,1002.9
2017-11-11T00:02:17.723Z,1002.9
2017-11-11T00:03:19.112Z,1002.9
2017-11-11T00:04:20.503Z,1002.9
2017-11-11T00:05:21.893Z,1003.0
2017-11-11T00:06:23.289Z,1002.9
2017-11-11T00:07:24.678Z,1002.9
2017-11-11T00:08:26.087Z,1002.9
2017-11-11T00:09:27.465Z,1002.9
2017-11-11T00:10:28.855Z,1002.9
2017-11-11T00:11:30.243Z,1002.9
2017-11-11T00:12:31.639Z,1002.9
2017-11-11T00:13:33.034Z,1002.9
2017-11-11T00:14:34.426Z,1002.9
2017-11-11T00:15:35.813Z,1002.9
2017-11-11T00:16:37.224Z,1002.9
2017-11-11T00:17:38.598Z,1003.0
2017-11-11T00:18:39.991Z,1003.0
2017-11-11T00:19:41.382Z,1003.0
2017-11-11T00:20:42.770Z,1003.0
2017-11-11T00:21:44.160Z,1003.0
2017-11-11T00:22:45.559Z,1003.0
2017-11-11T00:23:46.950Z,1002.9
2017-11-11T00:24:48.340Z,1002.9
2017-11-11T00:25:49.732Z,1003.0
2017-11-11T00:26:51.118Z,1003.0
2017-11-11T00:27:52.510Z,1002.9
2017-11-11T00:28:53.903Z,1002.9
2017-11-11T00:29:55.290Z,1003.0
2017-11-11T00:30:56.681Z,1002.9
2017-11-11T00:31:58.073Z,1003.0
2017-11-11T00:32:59.462Z,1003.0
2017-11-11T00:34:00.852Z,1002.9
2017-11-11T00:35:02.241Z,1003.0
2017-11-11T00:36:03.639Z,1002.9
2017-11-11T00:37:05.025Z,1003.0
2017-11-11T00:38:06.423Z,1003.0
2017-11-11T00:39:07.810Z,1003.0
2017-11-11T00:40:09.203Z,1003.0
2017-11-11T00:41:10.592Z,1003.0
2017-11-11T00:42:11.983Z,1002.9
2017-11-11T00:43:13.376Z,1003.0
2017-11-11T00:44:14.769Z,1002.9
2017-11-11T00:45:16.161Z,1002.9
2017-11-11T00:46:17.548Z,1002.9
2017-11-11T00:47:18.942Z,1002.9
2017-11-11T00:48:20.329Z,1002.9
2017-11-11T00:49:21.729Z,1003.0
2017-11-11T00:50:23.115Z,1002.9
2017-11-11T00:51:24.507Z,1002.8
2017-11-11T00:52:25.900Z,1002.9
2017-11-11T00:53:27.291Z,1002.9
2017-11-11T00:54:28.682Z,1003.0
2017-11-11T00:55:30.069Z,1002.9
2017-11-11T00:56:31.456Z,1002.9
2017-11-11T00:57:32.848Z,1002.9
2017-11-11T00:58:34.242Z,1002.9
2017-11-11T00:59:35.638Z,1002.9
2017-11-11T01:00:37.024Z,1002.9
2017-11-11T01:01:38.416Z,1002.9
2017-11-11T01:02:39.803Z,1002.9
2017-11-11T01:03:41.196Z,1002.9
2017-11-11T01:04:42.586Z,1002.9
2017-11-11T01:05:43.980Z,1002.9
2017-11-11T01:06:45.374Z,1002.9
2017-11-11T01:07:46.761Z,1002.9
2017-11-11T01:08:48.152Z,1002.9
2017-11-11T01:09:49.540Z,1002.8
2017-11-11T01:10:50.933Z,1002.8
2017-11-11T01:11:52.324Z,1002.7
2017-11-11T01:12:53.673Z,1002.8
2017-11-11T01:13:55.066Z,1002.8
2017-11-11T01:14:56.454Z,1002.7
2017-11-11T01:15:57.842Z,1002.7
2017-11-11T01:16:59.231Z,1002.7
2017-11-11T01:18:00.623Z,1002.6
2017-11-11T01:19:02.013Z,1002.8
2017-11-11T01:20:03.404Z,1002.7
2017-11-11T01:21:04.796Z,1002.7
2017-11-11T01:22:06.190Z,1002.7
2017-11-11T01:23:07.575Z,1002.6
2017-11-11T01:24:08.967Z,1002.7
2017-11-11T01:25:10.356Z,1002.7
2017-11-11T01:26:11.746Z,1002.7
2017-11-11T01:27:13.138Z,1002.7
2017-11-11T01:28:14.578Z,1002.7
2017-11-11T01:29:15.956Z,1002.7
2017-11-11T01:30:17.349Z,1002.7
2017-11-11T01:31:18.738Z,1002.6
2017-11-11T01:32:20.128Z,1002.6
2017-11-11T01:33:21.519Z,1002.7
2017-11-11T01:34:22.908Z,1002.6
2017-11-11T01:35:24.309Z,1002.6
2017-11-11T01:36:25.696Z,1002.6
2017-11-11T01:37:27.086Z,1002.5
2017-11-11T01:38:28.475Z,1002.5
2017-11-11T01:39:29.866Z,1002.5
2017-11-11T01:40:31.254Z,1002.4
2017-11-11T01:41:32.643Z,1002.5
2017-11-11T01:42:34.035Z,1002.4
2017-11-11T01:43:35.424Z,1002.4
2017-11-11T01:44:36.810Z,1002.5
2017-11-11T01:45:38.200Z,1002.4
2017-11-11T01:46:39.589Z,1002.4
2017-11-11T01:47:40.982Z,1002.5
2017-11-11T01:48:42.370Z,1002.4
2017-11-11T01:49:43.762Z,1002.4
2017-11-11T01:50:45.149Z,1002.3
2017-11-11T01:51:46.539Z,1002.3
2017-11-11T01:52:47.931Z,1002.3
2017-11-11T01:53:49.323Z,1002.3
2017-11-11T01:54:50.717Z,1002.2
2017-11-11T01:55:52.112Z,1002.3
2017-11-11T01:56:53.499Z,1002.3
2017-11-11T01:57:54.891Z,1002.3
2017-11-11T01:58:56.277Z,1002.3
2017-11-11T01:59:57.667Z,1002.3
2017-11-11T02:00:59.058Z,1002.4
2017-11-11T02:02:00.448Z,1002.2
2017-11-11T02:03:01.840Z,1002.3
2017-11-11T02:04:03.232Z,1002.2
2017-11-11T02:05:04.621Z,1002.2
2017-11-11T02:06:06.012Z,1002.2
2017-11-11T02:07:07.399Z,1002.2
2017-11-11T02:08:08.793Z,1002.2
2017-11-11T02:09:10.182Z,1002.2
2017-11-11T02:10:11.576Z,1002.2
2017-11-11T02:11:12.969Z,1002.2
2017-11-11T02:12:14.358Z,1002.1
2017-11-11T02:13:15.746Z,1002.1
2017-11-11T02:14:17.157Z,1002.1
2017-11-11T02:15:18.528Z,1002.1
2017-11-11T02:16:19.920Z,1002.1
2017-11-11T02:17:21.323Z,1002.1
2017-11-11T02:18:22.721Z,1002.1
2017-11-11T02:19:24.114Z,1002.1
2017-11-11T02:20:25.503Z,1002.1
2017-11-11T02:21:26.895Z,1002.1
2017-11-11T02:22:28.292Z,1002.1
2017-11-11T02:23:29.681Z,1002.0
2017-11-11T02:24:31.069Z,1002.0
2017-11-11T02:25:32.460Z,1002.0
2017-11-11T02:26:33.851Z,1002.0
2017-11-11T02:27:35.241Z,1002.0
2017-11-11T02:28:36.632Z,1002.0
2017-11-11T02:29:38.019Z,1002.0
2017-11-11T02:30:39.413Z,1002.0
2017-11-11T02:31:40.805Z,1002.0
2017-11-11T02:32:42.194Z,1002.0
2017-11-11T02:33:43.582Z,1002.0
2017-11-11T02:34:44.972Z,1002.0
2017-11-11T02:35:46.370Z,1002.0
2017-11-11T02:36:47.769Z,1002.0
2017-11-11T02:37:49.150Z,1002.1
2017-11-11T02:38:50.539Z,1002.1
2017-11-11T02:39:51.931Z,1002.1
2017-11-11T02:40:53.319Z,1002.1
2017-11-11T02:41:54.706Z,1002.0
2017-11-11T02:42:56.110Z,1001.9
2017-11-11T02:43:57.494Z,1002.0
2017-11-11T02:44:58.874Z,1002.0
2017-11-11T02:46:00.268Z,1001.9
2017-11-11T02:47:01.661Z,1001.9
2017-11-11T02:48:03.048Z,1001.9
2017-11-11T02:49:04.436Z,1001.9
2017-11-11T02:50:05.831Z,1001.9
2017-11-11T02:51:07.221Z,1001.9
2017-11-11T02:52:08.612Z,1001.9
2017-11-11T02:53:10.008Z,1001.8
2017-11-11T02:54:11.401Z,1001.9
2017-11-11T02:55:12.782Z,1001.9
2017-11-11T02:56:14.170Z,1001.9
2017-11-11T02:57:15.558Z,1001.9
2017-11-11T02:58:16.946Z,1001.8
2017-11-11T02:59:18.332Z,1001.8
2017-11-11T03:00:19.726Z,1001.7
2017-11-11T03:01:21.116Z,1001.8
2017-11-11T03:02:22.507Z,1001.7
2017-11-11T03:03:23.898Z,1001.7
2017-11-11T03:04:25.288Z,1001.7
2017-11-11T03:05:26.680Z,1001.7
2017-11-11T03:06:28.069Z,1001.7
2017-11-11T03:07:29.467Z,1001.7
2017-11-11T03:08:30.853Z,1001.7
2017-11-11T03:09:32.241Z,1001.6
2017-11-11T03:10:33.638Z,1001.6
2017-11-11T03:11:35.084Z,1001.6
2017-11-11T03:12:36.473Z,1001.6
2017-11-11T03:13:37.861Z,1001.6
2017-11-11T03:14:39.253Z,1001.6
2017-11-11T03:15:40.644Z,1001.5
2017-11-11T03:16:42.032Z,1001.5
2017-11-11T03:17:43.429Z,1001.5
2017-11-11T03:18:44.812Z,1001.5
2017-11-11T03:19:46.204Z,1001.5
2017-11-11T03:20:47.590Z,1001.4
2017-11-11T03:21:48.984Z,1001.4
2017-11-11T03:22:50.377Z,1001.5
2017-11-11T03:23:51.767Z,1001.5
2017-11-11T03:24:53.158Z,1001.5
2017-11-11T03:25:54.546Z,1001.5
2017-11-11T03:26:55.939Z,1001.5
2017-11-11T03:27:57.332Z,1001.5
2017-11-11T03:28:58.722Z,1001.4
2017-11-11T03:30:00.116Z,1001.4
2017-11-11T03:31:01.507Z,1001.3
2017-11-11T03:32:02.901Z,1001.2
2017-11-11T03:33:04.286Z,1001.2
2017-11-11T03:34:05.675Z,1001.2
2017-11-11T03:35:07.068Z,1001.2
2017-11-11T03:36:08.461Z,1001.1
2017-11-11T03:37:09.851Z,1001.2
2017-11-11T03:38:11.240Z,1001.1
2017-11-11T03:39:12.632Z,1001.1
2017-11-11T03:40:14.020Z,1001.1
2017-11-11T03:41:15.411Z,1001.1
2017-11-11T03:42:16.800Z,1001.1
2017-11-11T03:43:18.194Z,1001.1
2017-11-11T03:44:19.584Z,1001.1
2017-11-11T03:45:20.981Z,1001.2
2017-11-11T03:46:22.371Z,1001.1
2017-11-11T03:47:23.761Z,1001.1
2017-11-11T03:48:25.149Z,1001.1
2017-11-11T03:49:26.541Z,1001.0
2017-11-11T03:50:27.931Z,1001.0
2017-11-11T03:51:29.319Z,1001.0
2017-11-11T03:52:30.710Z,1001.0
2017-11-11T03:53:32.099Z,1000.9
2017-11-11T03:54:33.491Z,1000.9
2017-11-11T03:55:34.881Z,1000.9
2017-11-11T03:56:36.274Z,1000.9
2017-11-11T03:57:37.665Z,1000.8
2017-11-11T03:58:39.057Z,1000.9
2017-11-11T03:59:40.448Z,1000.8
2017-11-11T04:00:41.836Z,1000.8
2017-11-11T04:01:43.237Z,1000.8
2017-11-11T04:02:44.630Z,1000.9
2017-11-11T04:03:46.022Z,1000.9
2017-11-11T04:04:47.413Z,1000.8
2017-11-11T04:05:48.809Z,1000.9
2017-11-11T04:06:50.197Z,1000.8
2017-11-11T04:07:51.590Z,1000.8
2017-11-11T04:08:52.978Z,1000.9
2017-11-11T04:09:54.368Z,1000.9
2017-11-11T04:10:55.761Z,1000.8
2017-11-11T04:11:57.154Z,1000.9
2017-11-11T04:12:58.544Z,1000.8
2017-11-11T04:13:59.931Z,1000.8
2017-11-11T04:15:01.320Z,1000.9
2017-11-11T04:16:02.707Z,1000.9
2017-11-11T04:17:04.098Z,1000.9
2017-11-11T04:18:05.487Z,1000.8
2017-11-11T04:19:06.917Z,1000.8
2017-11-11T04:20:08.304Z,1000.8
2017-11-11T04:21:09.693Z,1000.8
2017-11-11T04:22:11.086Z,1000.7
2017-11-11T04:23:12.468Z,1000.7
2017-11-11T04:24:13.863Z,1000.8
2017-11-11T04:25:15.251Z,1000.7
2017-11-11T04:26:16.646Z,1000.6
2017-11-11T04:27:18.042Z,1000.6
2017-11-11T04:28:19.425Z,1000.6
2017-11-11T04:29:20.813Z,1000.6
2017-11-11T04:30:22.203Z,1000.6
2017-11-11T04:31:23.593Z,1000.6
2017-11-11T04:32:24.985Z,1000.6
2017-11-11T04:33:26.375Z,1000.6
2017-11-11T04:34:27.766Z,1000.6
2017-11-11T04:35:29.156Z,1000.6
2017-11-11T04:36:30.545Z,1000.6
2017-11-11T04:37:31.932Z,1000.5
2017-11-11T04:38:33.326Z,1000.6
2017-11-11T04:39:34.717Z,1000.5
2017-11-11T04:40:36.116Z,1000.6
2017-11-11T04:41:37.501Z,1000.6
2017-11-11T04:42:38.891Z,1000.6
2017-11-11T04:43:40.281Z,1000.5
2017-11-11T04:44:41.668Z,1000.6
2017-11-11T04:45:43.064Z,1000.6
2017-11-11T04:46:44.449Z,1000.5
2017-11-11T04:47:45.838Z,1000.5
2017-11-11T04:48:47.231Z,1000.5
2017-11-11T04:49:48.618Z,1000.6
2017-11-11T04:50:50.007Z,1000.6
2017-11-11T04:51:51.396Z,1000.5
2017-11-11T04:52:52.841Z,1000.6
2017-11-11T04:53:54.234Z,1000.6
2017-11-11T04:54:55.624Z,1000.6
2017-11-11T04:55:57.016Z,1000.6
2017-11-11T04:56:58.405Z,1000.7
2017-11-11T04:57:59.794Z,1000.6
2017-11-11T04:59:01.192Z,1000.6
2017-11-11T05:00:02.583Z,1000.6
2017-11-11T05:01:03.977Z,1000.6
2017-11-11T05:02:05.368Z,1000.6
2017-11-11T05:03:06.759Z,1000.6
2017-11-11T05:04:08.148Z,1000.5
2017-11-11T05:05:09.543Z,1000.5
2017-11-11T05:06:10.931Z,1000.4
2017-11-11T05:07:12.323Z,1000.4
2017-11-11T05:08:13.712Z,1000.4
2017-11-11T05:09:15.108Z,1000.4
2017-11-11T05:10:16.496Z,1000.4
2017-11-11T05:11:17.889Z,1000.4
2017-11-11T05:12:19.276Z,1000.3
2017-11-11T05:13:20.667Z,1000.3
2017-11-11T05:14:22.060Z,1000.4
2017-11-11T05:15:23.457Z,1000.3
2017-11-11T05:16:24.848Z,1000.3
2017-11-11T05:17:26.240Z,1000.3
2017-11-11T05:18:27.630Z,1000.2
2017-11-11T05:19:29.019Z,1000.1
2017-11-11T05:20:30.408Z,1000.2
2017-11-11T05:21:31.799Z,1000.1
2017-11-11T05:22:33.189Z,1000.1
2017-11-11T05:23:34.588Z,1000.2
2017-11-11T05:24:35.977Z,1000.1
2017-11-11T05:25:37.367Z,1000.1
2017-11-11T05:26:38.756Z,1000.1
2017-11-11T05:27:40.146Z,1000.1
2017-11-11T05:28:41.490Z,1000.0
2017-11-11T05:29:42.879Z,1000.0
2017-11-11T05:30:44.272Z,1000.0
2017-11-11T05:31:45.663Z,999.9
2017-11-11T05:32:47.053Z,1000.0
2017-11-11T05:33:48.441Z,1000.0
2017-11-11T05:34:49.844Z,999.9
2017-11-11T05:35:51.222Z,1000.0
2017-11-11T05:36:52.616Z,999.9
2017-11-11T05:37:54.003Z,999.9
2017-11-11T05:38:55.396Z,999.9
2017-11-11T05:39:56.781Z,999.8
2017-11-11T05:40:58.170Z,999.8
2017-11-11T05:41:59.559Z,999.8
2017-11-11T05:43:00.964Z,999.8
2017-11-11T05:44:02.356Z,999.8
2017-11-11T05:45:03.753Z,999.8
2017-11-11T05:46:05.165Z,999.8
2017-11-11T05:47:06.556Z,999.8
2017-11-11T05:48:07.943Z,999.8
2017-11-11T05:49:09.331Z,999.7
2017-11-11T05:50:10.722Z,999.7
2017-11-11T05:51:12.111Z,999.7
2017-11-11T05:52:13.503Z,999.6
2017-11-11T05:53:14.890Z,999.6
2017-11-11T05:54:16.281Z,999.6
2017-11-11T05:55:17.671Z,999.6
2017-11-11T05:56:19.058Z,999.6
2017-11-11T05:57:20.448Z,999.6
2017-11-11T05:58:21.839Z,999.5
2017-11-11T05:59:23.228Z,999.5
2017-11-11T06:00:24.620Z,999.6
2017-11-11T06:01:26.009Z,999.6
2017-11-11T06:02:27.408Z,999.6
2017-11-11T06:03:28.822Z,999.6
2017-11-11T06:04:30.177Z,999.6
2017-11-11T06:05:31.569Z,999.6
2017-11-11T06:06:32.961Z,999.6
2017-11-11T06:07:34.354Z,999.6
2017-11-11T06:08:35.738Z,999.6
2017-11-11T06:09:37.130Z,999.6
2017-11-11T06:10:38.516Z,999.5
2017-11-11T06:11:39.906Z,999.6
2017-11-11T06:12:41.297Z,999.6
2017-11-11T06:13:42.685Z,999.6
2017-11-11T06:14:44.077Z,999.6
2017-11-11T06:15:45.464Z,999.5
2017-11-11T06:16:46.855Z,999.5
2017-11-11T06:17:48.236Z,999.5
2017-11-11T06:18:49.640Z,999.5
2017-11-11T06:19:51.029Z,999.4
2017-11-11T06:20:52.418Z,999.4
2017-11-11T06:21:53.806Z,999.4
2017-11-11T06:22:55.195Z,999.4
2017-11-11T06:23:56.581Z,999.5
2017-11-11T06:24:57.974Z,999.5
2017-11-11T06:25:59.362Z,999.5
2017-11-11T06:27:00.752Z,999.5
2017-11-11T06:28:02.142Z,999.5
2017-11-11T06:29:03.532Z,999.5
2017-11-11T06:30:04.930Z,999.5
2017-11-11T06:31:06.314Z,999.5
2017-11-11T06:32:07.700Z,999.5
2017-11-11T06:33:09.094Z,999.5
2017-11-11T06:34:10.540Z,999.3
2017-11-11T06:35:11.936Z,999.3
2017-11-11T06:36:13.327Z,999.3
2017-11-11T06:37:14.716Z,999.3
2017-11-11T06:38:16.106Z,999.3
2017-11-11T06:39:17.493Z,999.3
2017-11-11T06:40:18.885Z,999.3
2017-11-11T06:41:20.279Z,999.3
2017-11-11T06:42:21.670Z,999.4
2017-11-11T06:43:23.059Z,999.3
2017-11-11T06:44:24.448Z,999.3
2017-11-11T06:45:25.842Z,999.3
2017-11-11T06:46:27.227Z,999.2
2017-11-11T06:47:28.620Z,999.2
2017-11-11T06:48:30.009Z,999.2
2017-11-11T06:49:31.400Z,999.3
2017-11-11T06:50:32.796Z,999.3
2017-11-11T06:51:34.184Z,999.3
2017-11-11T06:52:35.575Z,999.2
2017-11-11T06:53:36.962Z,999.2
2017-11-11T06:54:38.355Z,999.2
2017-11-11T06:55:39.748Z,999.2
2017-11-11T06:56:41.139Z,999.1
2017-11-11T06:57:42.531Z,999.1
2017-11-11T06:58:43.918Z,999.1
2017-11-11T06:59:45.309Z,999.1
2017-11-11T07:00:46.698Z,999.1
2017-11-11T07:01:48.088Z,999.0
2017-11-11T07:02:49.480Z,999.0
2017-11-11T07:03:50.871Z,999.0
2017-11-11T07:04:52.261Z,999.0
2017-11-11T07:05:53.653Z,999.0
2017-11-11T07:06:55.045Z,999.1
2017-11-11T07:07:56.434Z,999.1
2017-11-11T07:08:57.829Z,999.1
2017-11-11T07:09:59.216Z,999.1
2017-11-11T07:11:00.620Z,999.1
2017-11-11T07:12:02.005Z,999.0
2017-11-11T07:13:03.395Z,998.8
2017-11-11T07:14:04.784Z,999.0
2017-11-11T07:15:06.179Z,998.9
2017-11-11T07:16:07.571Z,998.9
2017-11-11T07:17:08.963Z,998.9
2017-11-11T07:18:10.353Z,998.8
2017-11-11T07:19:11.744Z,998.9
2017-11-11T07:20:13.138Z,998.9
2017-11-11T07:21:14.529Z,998.9
2017-11-11T07:22:15.920Z,998.9
2017-11-11T07:23:17.316Z,999.1
2017-11-11T07:24:18.709Z,998.9
2017-11-11T07:25:20.103Z,999.0
2017-11-11T07:26:21.498Z,999.0
2017-11-11T07:27:22.890Z,998.9
2017-11-11T07:28:24.282Z,998.9
2017-11-11T07:29:25.673Z,998.9
2017-11-11T07:30:27.069Z,998.9
2017-11-11T07:31:28.459Z,998.9
2017-11-11T07:32:29.856Z,998.9
2017-11-11T07:33:31.246Z,998.9
2017-11-11T07:34:32.635Z,998.8
2017-11-11T07:35:34.026Z,998.9
2017-11-11T07:36:35.417Z,998.8
2017-11-11T07:37:36.807Z,999.0
2017-11-11T07:38:38.201Z,998.9
2017-11-11T07:39:39.598Z,998.9
2017-11-11T07:40:40.991Z,998.9
2017-11-11T07:41:42.382Z,998.9
2017-11-11T07:42:43.775Z,999.0
2017-11-11T07:43:45.166Z,998.9
2017-11-11T07:44:46.558Z,998.9
2017-11-11T07:45:47.951Z,998.9
2017-11-11T07:46:49.346Z,998.9
2017-11-11T07:47:50.750Z,998.9
2017-11-11T07:48:52.142Z,998.9
2017-11-11T07:49:53.532Z,998.9
2017-11-11T07:50:54.924Z,998.8
2017-11-11T07:51:56.316Z,998.8
2017-11-11T07:52:57.710Z,998.7
2017-11-11T07:53:59.104Z,998.7
2017-11-11T07:55:00.502Z,998.7
2017-11-11T07:56:01.894Z,998.6
2017-11-11T07:57:03.286Z,998.7
2017-11-11T07:58:04.678Z,998.7
2017-11-11T07:59:06.072Z,998.7
2017-11-11T08:00:07.466Z,998.7
2017-11-11T08:01:08.858Z,998.7
2017-11-11T08:02:10.254Z,998.7
2017-11-11T08:03:11.645Z,998.7
2017-11-11T08:04:13.039Z,998.7
2017-11-11T08:05:14.429Z,998.7
2017-11-11T08:06:15.821Z,998.7
2017-11-11T08:07:17.260Z,998.7
2017-11-11T08:08:18.613Z,998.8
2017-11-11T08:09:20.006Z,998.7
2017-11-11T08:10:21.396Z,998.7
2017-11-11T08:11:22.788Z,998.7
2017-11-11T08:12:24.182Z,998.6
2017-11-11T08:13:25.581Z,998.6
2017-11-11T08:14:26.968Z,998.6
2017-11-11T08:15:28.408Z,998.6
2017-11-11T08:16:29.803Z,998.5
2017-11-11T08:17:31.192Z,998.6
2017-11-11T08:18:32.583Z,998.5
2017-11-11T08:19:33.980Z,998.5
2017-11-11T08:20:35.381Z,998.5
2017-11-11T08:21:36.765Z,998.5
2017-11-11T08:22:38.158Z,998.5
2017-11-11T08:23:39.551Z,998.4
2017-11-11T08:24:40.951Z,998.5
2017-11-11T08:25:42.338Z,998.4
2017-11-11T08:26:43.735Z,998.4
2017-11-11T08:27:45.127Z,998.3
2017-11-11T08:28:46.525Z,998.3
2017-11-11T08:29:47.979Z,998.3
2017-11-11T08:30:49.372Z,998.3
2017-11-11T08:31:50.763Z,998.2
2017-11-11T08:32:52.155Z,998.2
2017-11-11T08:33:53.548Z,998.3
2017-11-11T08:34:54.945Z,998.2
2017-11-11T08:35:56.336Z,998.2
2017-11-11T08:36:57.735Z,998.2
2017-11-11T08:37:59.127Z,998.2
2017-11-11T08:39:00.520Z,998.2
2017-11-11T08:40:01.919Z,998.1
2017-11-11T08:41:03.307Z,998.2
2017-11-11T08:42:04.709Z,998.1
2017-11-11T08:43:06.101Z,998.1
2017-11-11T08:44:07.496Z,998.0
2017-11-11T08:45:08.891Z,998.0
2017-11-11T08:46:10.282Z,998.0
2017-11-11T08:47:11.675Z,998.0
2017-11-11T08:48:13.070Z,997.9
2017-11-11T08:49:14.474Z,998.0
2017-11-11T08:50:15.864Z,997.9
2017-11-11T08:51:17.259Z,997.9
2017-11-11T08:52:18.652Z,997.9
2017-11-11T08:53:20.046Z,997.9
2017-11-11T08:54:21.438Z,997.8
2017-11-11T08:55:22.830Z,997.8
2017-11-11T08:56:24.247Z,997.8
2017-11-11T08:57:25.639Z,997.8
2017-11-11T08:58:27.034Z,997.7
2017-11-11T08:59:28.430Z,997.7
2017-11-11T09:00:30.147Z,997.7
2017-11-11T09:01:31.542Z,997.7
2017-11-11T09:02:32.932Z,997.7
2017-11-11T09:03:34.331Z,997.7
2017-11-11T09:04:35.727Z,997.7
2017-11-11T09:05:37.125Z,997.7
2017-11-11T09:06:38.545Z,997.6
2017-11-11T09:07:39.911Z,997.7
2017-11-11T09:08:41.301Z,997.6
2017-11-11T09:09:42.712Z,997.6
2017-11-11T09:10:44.105Z,997.6
2017-11-11T09:11:45.542Z,997.5
2017-11-11T09:12:46.936Z,997.5
2017-11-11T09:13:48.549Z,997.5
2017-11-11T09:14:49.940Z,997.5
2017-11-11T09:15:51.331Z,997.5
2017-11-11T09:16:53.009Z,997.4
2017-11-11T09:17:54.616Z,997.5
2017-11-11T09:18:56.423Z,997.4
2017-11-11T09:19:57.819Z,997.4
2017-11-11T09:20:59.218Z,997.4
2017-11-11T09:22:00.605Z,997.3
2017-11-11T09:23:02.002Z,997.3
2017-11-11T09:24:03.391Z,997.3
2017-11-11T09:25:04.790Z,997.2
2017-11-11T09:26:06.187Z,997.2
2017-11-11T09:27:07.582Z,997.2
2017-11-11T09:28:08.981Z,997.2
2017-11-11T09:29:10.373Z,997.3
2017-11-11T09:30:11.769Z,997.2
2017-11-11T09:31:13.159Z,997.2
2017-11-11T09:32:14.558Z,997.2
2017-11-11T09:33:15.954Z,997.2
2017-11-11T09:34:17.345Z,997.2
2017-11-11T09:35:18.747Z,997.2
2017-11-11T09:36:20.140Z,997.2
2017-11-11T09:37:21.531Z,997.2
2017-11-11T09:38:22.926Z,997.2
2017-11-11T09:39:24.327Z,997.2
2017-11-11T09:40:25.718Z,997.1
2017-11-11T09:41:27.114Z,997.0
2017-11-11T09:42:28.512Z,997.0
2017-11-11T09:43:29.906Z,996.9
2017-11-11T09:44:31.303Z,997.0
2017-11-11T09:45:32.698Z,997.0
2017-11-11T09:46:34.093Z,997.0
2017-11-11T09:47:35.487Z,997.0
2017-11-11T09:48:36.886Z,996.9
2017-11-11T09:49:38.280Z,996.9
2017-11-11T09:50:39.672Z,996.9
2017-11-11T09:51:41.094Z,996.9
2017-11-11T09:52:42.487Z,996.9
2017-11-11T09:53:43.885Z,996.9
2017-11-11T09:54:45.335Z,996.8
2017-11-11T09:55:46.748Z,996.7
2017-11-11T09:56:48.139Z,996.7
2017-11-11T09:57:49.536Z,996.7
2017-11-11T09:58:50.945Z,996.7
2017-11-11T09:59:52.338Z,996.7
2017-11-11T10:00:53.736Z,996.7
2017-11-11T10:01:55.126Z,996.7
2017-11-11T10:02:56.523Z,996.7
2017-11-11T10:03:57.923Z,996.7
2017-11-11T10:04:59.316Z,996.7
2017-11-11T10:06:00.712Z,996.6
2017-11-11T10:07:02.109Z,996.7
2017-11-11T10:08:03.503Z,996.7
2017-11-11T10:09:04.897Z,996.6
2017-11-11T10:10:06.304Z,996.6
2017-11-11T10:11:07.699Z,996.6
2017-11-11T10:12:09.095Z,996.6
2017-11-11T10:13:10.497Z,996.5
2017-11-11T10:14:11.890Z,996.5
2017-11-11T10:15:13.278Z,996.5
2017-11-11T10:16:14.674Z,996.5
2017-11-11T10:17:16.072Z,996.5
2017-11-11T10:18:17.466Z,996.4
2017-11-11T10:19:18.862Z,996.4
2017-11-11T10:20:20.255Z,996.3
2017-11-11T10:21:21.668Z,996.4
2017-11-11T10:22:23.247Z,996.3
2017-11-11T10:23:24.837Z,996.3
2017-11-11T10:24:26.227Z,996.3
2017-11-11T10:25:27.660Z,996.3
2017-11-11T10:26:29.283Z,996.3
2017-11-11T10:27:30.763Z,996.3
2017-11-11T10:28:32.136Z,996.2
2017-11-11T10:29:33.741Z,996.3
2017-11-11T10:30:35.485Z,996.2
2017-11-11T10:31:37.224Z,996.2
2017-11-11T10:32:38.717Z,996.2
2017-11-11T10:33:40.032Z,996.1
2017-11-11T10:34:41.597Z,996.2
2017-11-11T10:35:43.445Z,996.1
2017-11-11T10:36:45.067Z,996.1
2017-11-11T10:37:46.562Z,996.1
2017-11-11T10:38:47.952Z,996.1
2017-11-11T10:39:49.357Z,996.1
2017-11-11T10:40:50.911Z,996.0
2017-11-11T10:41:52.314Z,996.0
2017-11-11T10:42:53.813Z,996.0
2017-11-11T10:43:55.456Z,996.0
2017-11-11T10:44:57.221Z,995.9
2017-11-11T10:45:58.889Z,995.9
2017-11-11T10:47:00.117Z,995.9
2017-11-11T10:48:01.762Z,995.9
2017-11-11T10:49:03.530Z,995.8
2017-11-11T10:50:05.022Z,995.8
2017-11-11T10:51:06.419Z,995.8
2017-11-11T10:52:07.883Z,995.8
2017-11-11T10:53:09.693Z,995.7
2017-11-11T10:54:11.624Z,995.7
2017-11-11T10:55:13.347Z,995.7
2017-11-11T10:56:14.964Z,995.7
2017-11-11T10:57:16.358Z,995.7
2017-11-11T10:58:18.009Z,995.7
2017-11-11T10:59:19.722Z,995.7
2017-11-11T11:00:21.454Z,995.7
2017-11-11T11:01:23.024Z,995.6
2017-11-11T11:02:24.431Z,995.6
2017-11-11T11:03:25.826Z,995.6
2017-11-11T11:04:27.218Z,995.6
2017-11-11T11:05:28.612Z,995.6
2017-11-11T11:06:30.054Z,995.6
2017-11-11T11:07:31.453Z,995.6
2017-11-11T11:08:32.854Z,995.6
2017-11-11T11:09:34.243Z,995.6
2017-11-11T11:10:35.640Z,995.5
2017-11-11T11:11:37.034Z,995.5
2017-11-11T11:12:38.436Z,995.4
2017-11-11T11:13:39.828Z,995.4
2017-11-11T11:14:41.232Z,995.4
2017-11-11T11:15:42.629Z,995.4
2017-11-11T11:16:44.022Z,995.4
2017-11-11T11:17:45.417Z,995.4
2017-11-11T11:18:46.827Z,995.4
2017-11-11T11:19:48.224Z,995.4
2017-11-11T11:20:49.619Z,995.4
2017-11-11T11:21:51.016Z,995.3
2017-11-11T11:22:52.413Z,995.3
2017-11-11T11:23:53.813Z,995.3
2017-11-11T11:24:55.207Z,995.3
2017-11-11T11:25:56.600Z,995.3
2017-11-11T11:26:58.001Z,995.3
2017-11-11T11:27:59.419Z,995.3
2017-11-11T11:29:00.788Z,995.3
2017-11-11T11:30:02.184Z,995.3
2017-11-11T11:31:03.573Z,995.2
2017-11-11T11:32:04.967Z,995.2
2017-11-11T11:33:06.362Z,995.1
2017-11-11T11:34:07.758Z,995.1
2017-11-11T11:35:09.164Z,995.0
2017-11-11T11:36:10.561Z,995.0
2017-11-11T11:37:11.959Z,995.0
2017-11-11T11:38:13.352Z,995.1
2017-11-11T11:39:14.746Z,995.1
2017-11-11T11:40:16.141Z,995.1
2017-11-11T11:41:17.534Z,995.0
2017-11-11T11:42:18.929Z,995.0
2017-11-11T11:43:20.333Z,995.0
2017-11-11T11:44:21.724Z,995.0
2017-11-11T11:45:23.117Z,995.0
2017-11-11T11:46:24.512Z,994.9
2017-11-11T11:47:25.910Z,994.9
2017-11-11T11:48:27.313Z,994.9
2017-11-11T11:49:28.736Z,994.9
2017-11-11T11:50:30.110Z,994.9
2017-11-11T11:51:31.503Z,994.8
2017-11-11T11:52:32.898Z,994.8
2017-11-11T11:53:34.293Z,994.8
2017-11-11T11:54:35.694Z,994.7
2017-11-11T11:55:37.087Z,994.8
2017-11-11T11:56:38.486Z,994.8
2017-11-11T11:57:39.879Z,994.7
2017-11-11T11:58:41.276Z,994.7
2017-11-11T11:59:42.672Z,994.7
2017-11-11T12:00:44.073Z,994.7
2017-11-11T12:01:45.471Z,994.6
2017-11-11T12:02:46.856Z,994.7
2017-11-11T12:03:48.253Z,994.7
2017-11-11T12:04:49.652Z,994.6
2017-11-11T12:05:51.054Z,994.6
2017-11-11T12:06:52.442Z,994.6
2017-11-11T12:07:53.840Z,994.6
2017-11-11T12:08:55.232Z,994.6
2017-11-11T12:09:56.626Z,994.7
2017-11-11T12:10:58.022Z,994.6
2017-11-11T12:11:59.416Z,994.6
2017-11-11T12:13:00.813Z,994.6
2017-11-11T12:14:02.223Z,994.6
2017-11-11T12:15:03.616Z,994.6
2017-11-11T12:16:05.012Z,994.6
2017-11-11T12:17:06.409Z,994.6
2017-11-11T12:18:07.803Z,994.6
2017-11-11T12:19:09.199Z,994.6
2017-11-11T12:20:10.595Z,994.6
2017-11-11T12:21:11.990Z,994.6
2017-11-11T12:22:13.392Z,994.6
2017-11-11T12:23:14.780Z,994.6
2017-11-11T12:24:16.180Z,994.6
2017-11-11T12:25:17.575Z,994.5
2017-11-11T12:26:18.978Z,994.5
2017-11-11T12:27:20.368Z,994.5
2017-11-11T12:28:21.760Z,994.5
2017-11-11T12:29:23.154Z,994.6
2017-11-11T12:30:24.546Z,994.5
2017-11-11T12:31:25.941Z,994.5
2017-11-11T12:32:27.338Z,994.5
2017-11-11T12:33:28.734Z,994.5
2017-11-11T12:34:30.128Z,994.5
2017-11-11T12:35:31.524Z,994.5
2017-11-11T12:36:32.919Z,994.4
2017-11-11T12:37:34.313Z,994.4
2017-11-11T12:38:35.704Z,994.4
2017-11-11T12:39:37.097Z,994.4
2017-11-11T12:40:38.494Z,994.4
2017-11-11T12:41:39.889Z,994.4
2017-11-11T12:42:41.282Z,994.3
2017-11-11T12:43:42.677Z,994.4
2017-11-11T12:44:44.069Z,994.4
2017-11-11T12:45:45.469Z,994.4
2017-11-11T12:46:46.866Z,994.3
2017-11-11T12:47:48.265Z,994.3
2017-11-11T12:48:49.662Z,994.4
2017-11-11T12:49:51.055Z,994.4
2017-11-11T12:50:52.450Z,994.3
2017-11-11T12:51:53.843Z,994.4
2017-11-11T12:52:55.235Z,994.3
2017-11-11T12:53:56.634Z,994.3
2017-11-11T12:54:58.039Z,994.4
2017-11-11T12:55:59.429Z,994.4
2017-11-11T12:57:00.820Z,994.4
2017-11-11T12:58:02.221Z,994.4
2017-11-11T12:59:03.609Z,994.4
2017-11-11T13:00:05.008Z,994.5